createdAt,value
2018-08-25T00:01:23.634Z,14.38
2018-08-25T00:03:50.118Z,14.35
2018-08-25T00:06:16.613Z,14.33
2018-08-25T00:08:43.358Z,14.30
2018-08-25T00:11:09.834Z,14.29
2018-08-25T00:13:36.278Z,14.29
2018-08-25T00:16:03.066Z,14.23
2018-08-25T00:18:29.559Z,14.24
2018-08-25T00:20:56.023Z,14.22
2018-08-25T00:23:22.479Z,14.16
2018-08-25T00:25:49.253Z,14.13
2018-08-25T00:28:15.784Z,14.09
2018-08-25T00:30:42.291Z,14.06
2018-08-25T00:33:09.090Z,14.03
2018-08-25T00:35:35.570Z,14.06
2018-08-25T00:38:02.020Z,14.03
2018-08-25T00:40:28.506Z,13.99
2018-08-25T00:42:55.253Z,14.00
2018-08-25T00:45:21.750Z,14.00
2018-08-25T00:47:48.232Z,13.98
2018-08-25T00:50:14.722Z,14.01
2018-08-25T00:52:41.523Z,14.02
2018-08-25T00:55:07.973Z,14.05
2018-08-25T00:57:34.479Z,13.98
2018-08-25T01:00:01.227Z,13.95
2018-08-25T01:02:27.686Z,13.87
2018-08-25T01:04:54.133Z,13.85
2018-08-25T01:07:20.583Z,13.80
2018-08-25T01:09:47.349Z,13.75
2018-08-25T01:12:13.834Z,13.72
2018-08-25T01:14:40.318Z,13.71
2018-08-25T01:17:06.846Z,13.71
2018-08-25T01:19:33.328Z,13.74
2018-08-25T01:21:59.814Z,13.73
2018-08-25T01:24:26.298Z,13.70
2018-08-25T01:26:53.053Z,13.72
2018-08-25T01:29:20.078Z,13.74
2018-08-25T01:31:46.542Z,13.74
2018-08-25T01:34:13.318Z,13.75
2018-08-25T01:36:39.814Z,13.74
2018-08-25T01:39:06.290Z,13.73
2018-08-25T01:41:33.068Z,13.74
2018-08-25T01:43:59.521Z,13.74
2018-08-25T01:46:26.000Z,13.77
2018-08-25T01:48:52.747Z,13.80
2018-08-25T01:51:19.214Z,13.78
2018-08-25T01:53:45.706Z,13.74
2018-08-25T01:56:12.151Z,13.73
2018-08-25T01:58:39.564Z,13.72
2018-08-25T02:01:07.654Z,13.68
2018-08-25T02:03:34.132Z,13.63
2018-08-25T02:06:00.874Z,13.61
2018-08-25T02:08:27.354Z,13.55
2018-08-25T02:10:53.840Z,13.52
2018-08-25T02:13:20.355Z,13.54
2018-08-25T02:15:47.090Z,13.58
2018-08-25T02:18:13.531Z,13.60
2018-08-25T02:20:40.014Z,13.57
2018-08-25T02:23:06.807Z,13.60
2018-08-25T02:25:33.281Z,13.61
2018-08-25T02:27:59.764Z,13.65
2018-08-25T02:30:26.613Z,13.66
2018-08-25T02:32:53.092Z,13.65
2018-08-25T02:35:19.567Z,13.67
2018-08-25T02:37:46.331Z,13.70
2018-08-25T02:40:12.825Z,13.68
2018-08-25T02:42:39.304Z,13.66
2018-08-25T02:45:06.037Z,13.68
2018-08-25T02:47:32.485Z,13.72
2018-08-25T02:49:58.941Z,13.78
2018-08-25T02:52:25.701Z,13.80
2018-08-25T02:54:52.194Z,13.76
2018-08-25T02:57:18.672Z,13.78
2018-08-25T02:59:46.855Z,13.68
2018-08-25T03:02:13.366Z,13.65
2018-08-25T03:04:39.836Z,13.66
2018-08-25T03:07:06.639Z,13.67
2018-08-25T03:09:33.134Z,13.67
2018-08-25T03:12:00.150Z,13.69
2018-08-25T03:14:26.930Z,13.68
2018-08-25T03:16:53.387Z,13.69
2018-08-25T03:19:19.886Z,13.75
2018-08-25T03:21:46.645Z,13.75
2018-08-25T03:24:13.105Z,13.73
2018-08-25T03:26:39.586Z,13.70
2018-08-25T03:29:06.048Z,13.71
2018-08-25T03:31:32.808Z,13.71
2018-08-25T03:33:59.293Z,13.68
2018-08-25T03:36:25.746Z,13.69
2018-08-25T03:38:52.209Z,13.67
2018-08-25T03:41:18.954Z,13.67
2018-08-25T03:43:45.447Z,13.65
2018-08-25T03:46:11.944Z,13.72
2018-08-25T03:48:38.700Z,13.74
2018-08-25T03:51:05.201Z,13.69
2018-08-25T03:53:31.698Z,13.74
2018-08-25T03:55:58.191Z,13.68
2018-08-25T03:58:25.004Z,13.62
2018-08-25T04:00:51.465Z,13.50
2018-08-25T04:03:17.951Z,13.36
2018-08-25T04:05:44.685Z,13.21
2018-08-25T04:08:11.269Z,13.03
2018-08-25T04:10:37.742Z,12.85
2018-08-25T04:13:04.528Z,12.63
2018-08-25T04:15:31.002Z,12.44
2018-08-25T04:17:57.446Z,12.31
2018-08-25T04:20:24.181Z,12.17
2018-08-25T04:22:50.626Z,12.01
2018-08-25T04:25:17.411Z,11.98
2018-08-25T04:27:43.894Z,11.92
2018-08-25T04:30:10.650Z,11.86
2018-08-25T04:32:37.135Z,11.87
2018-08-25T04:35:03.597Z,11.80
2018-08-25T04:37:30.063Z,11.80
2018-08-25T04:39:56.847Z,11.78
2018-08-25T04:42:23.329Z,11.76
2018-08-25T04:44:49.787Z,11.75
2018-08-25T04:47:16.228Z,11.76
2018-08-25T04:49:42.718Z,11.72
2018-08-25T04:52:09.175Z,11.70
2018-08-25T04:54:35.648Z,11.70
2018-08-25T04:57:02.422Z,11.73
2018-08-25T04:59:28.868Z,11.65
2018-08-25T05:01:55.508Z,11.67
2018-08-25T05:04:21.977Z,11.66
2018-08-25T05:06:48.733Z,11.79
2018-08-25T05:09:15.405Z,11.72
2018-08-25T05:11:41.841Z,11.64
2018-08-25T05:14:08.281Z,11.64
2018-08-25T05:16:35.082Z,11.66
2018-08-25T05:19:01.559Z,11.67
2018-08-25T05:21:28.045Z,11.66
2018-08-25T05:23:54.531Z,11.63
2018-08-25T05:26:21.293Z,11.59
2018-08-25T05:28:47.769Z,11.57
2018-08-25T05:31:14.209Z,11.57
2018-08-25T05:33:40.665Z,11.59
2018-08-25T05:36:08.234Z,11.56
2018-08-25T05:38:34.682Z,11.53
2018-08-25T05:41:01.126Z,11.55
2018-08-25T05:43:27.862Z,11.64
2018-08-25T05:45:54.365Z,11.65
2018-08-25T05:48:20.805Z,11.69
2018-08-25T05:50:47.247Z,11.60
2018-08-25T05:53:14.018Z,11.58
2018-08-25T05:55:40.473Z,11.55
2018-08-25T05:58:06.914Z,11.53
2018-08-25T06:00:33.637Z,11.54
2018-08-25T06:03:00.090Z,11.60
2018-08-25T06:05:26.535Z,11.65
2018-08-25T06:07:53.260Z,11.63
2018-08-25T06:10:19.739Z,11.70
2018-08-25T06:12:46.226Z,11.61
2018-08-25T06:15:13.803Z,11.61
2018-08-25T06:17:41.252Z,11.59
2018-08-25T06:20:07.718Z,11.42
2018-08-25T06:22:34.530Z,11.45
2018-08-25T06:25:00.981Z,11.57
2018-08-25T06:27:27.482Z,11.74
2018-08-25T06:29:54.373Z,11.85
2018-08-25T06:32:20.803Z,11.91
2018-08-25T06:34:47.276Z,11.93
2018-08-25T06:37:14.182Z,11.90
2018-08-25T06:39:43.586Z,11.96
2018-08-25T06:42:10.109Z,11.95
2018-08-25T06:44:36.901Z,11.90
2018-08-25T06:47:04.791Z,11.93
2018-08-25T06:49:31.244Z,11.93
2018-08-25T06:51:57.998Z,12.13
2018-08-25T06:54:24.441Z,12.21
2018-08-25T06:56:52.106Z,12.30
2018-08-25T06:59:19.042Z,12.30
2018-08-25T07:01:45.492Z,12.39
2018-08-25T07:04:11.988Z,12.35
2018-08-25T07:06:38.791Z,12.54
2018-08-25T07:09:05.271Z,12.72
2018-08-25T07:11:31.751Z,12.77
2018-08-25T07:13:58.548Z,12.81
2018-08-25T07:16:25.030Z,12.80
2018-08-25T07:18:51.535Z,12.72
2018-08-25T07:21:18.319Z,12.64
2018-08-25T07:23:44.759Z,12.88
2018-08-25T07:26:11.343Z,12.97
2018-08-25T07:28:38.078Z,12.85
2018-08-25T07:31:04.589Z,12.87
2018-08-25T07:33:31.326Z,13.02
2018-08-25T07:35:58.111Z,12.91
2018-08-25T07:38:24.634Z,12.83
2018-08-25T07:40:51.346Z,12.69
2018-08-25T07:43:18.129Z,12.66
2018-08-25T07:45:44.625Z,12.76
2018-08-25T07:48:11.689Z,12.87
2018-08-25T07:50:38.189Z,13.00
2018-08-25T07:53:04.645Z,13.03
2018-08-25T07:55:31.378Z,13.08
2018-08-25T07:57:57.856Z,13.36
2018-08-25T08:00:24.335Z,13.41
2018-08-25T08:02:51.645Z,13.56
2018-08-25T08:05:19.010Z,13.57
2018-08-25T08:07:45.493Z,13.67
2018-08-25T08:10:12.273Z,13.69
2018-08-25T08:12:39.774Z,13.66
2018-08-25T08:15:09.278Z,13.66
2018-08-25T08:17:36.057Z,13.57
2018-08-25T08:20:02.519Z,13.53
2018-08-25T08:22:29.043Z,13.38
2018-08-25T08:24:55.843Z,13.24
2018-08-25T08:27:23.565Z,13.16
2018-08-25T08:29:51.935Z,13.18
2018-08-25T08:32:18.695Z,13.08
2018-08-25T08:34:45.507Z,12.69
2018-08-25T08:37:12.077Z,12.49
2018-08-25T08:39:38.923Z,12.38
2018-08-25T08:42:05.438Z,12.25
2018-08-25T08:44:33.095Z,12.21
2018-08-25T08:46:59.903Z,12.30
2018-08-25T08:49:26.434Z,12.42
2018-08-25T08:51:54.144Z,12.54
2018-08-25T08:54:20.924Z,12.55
2018-08-25T08:56:47.543Z,12.67
2018-08-25T08:59:14.126Z,12.78
2018-08-25T09:01:41.014Z,12.78
2018-08-25T09:04:07.507Z,12.95
2018-08-25T09:06:34.015Z,13.07
2018-08-25T09:09:01.918Z,13.24
2018-08-25T09:11:28.512Z,13.58
2018-08-25T09:13:56.852Z,13.67
2018-08-25T09:16:23.616Z,13.84
2018-08-25T09:18:50.240Z,13.83
2018-08-25T09:21:16.733Z,13.64
2018-08-25T09:23:47.455Z,13.34
2018-08-25T09:26:15.879Z,13.19
2018-08-25T09:28:42.405Z,13.14
2018-08-25T09:31:09.202Z,13.06
2018-08-25T09:33:35.820Z,12.99
2018-08-25T09:36:02.555Z,12.93
2018-08-25T09:38:29.790Z,12.76
2018-08-25T09:40:56.294Z,12.65
2018-08-25T09:43:23.494Z,12.62
2018-08-25T09:45:50.486Z,12.51
2018-08-25T09:48:16.985Z,12.46
2018-08-25T09:50:43.551Z,12.58
2018-08-25T09:53:11.632Z,12.90
2018-08-25T09:55:38.753Z,13.55
2018-08-25T09:58:05.232Z,13.65
2018-08-25T10:00:33.466Z,13.59
2018-08-25T10:02:59.986Z,13.84
2018-08-25T10:05:26.484Z,13.88
2018-08-25T10:10:26.480Z,13.92
2018-08-25T10:12:53.554Z,13.95
2018-08-25T10:15:20.423Z,13.70
2018-08-25T10:17:46.978Z,13.52
2018-08-25T10:20:14.632Z,13.39
2018-08-25T10:22:42.499Z,13.38
2018-08-25T10:25:10.627Z,13.44
2018-08-25T10:27:38.072Z,13.60
2018-08-25T10:30:04.879Z,13.76
2018-08-25T10:32:31.418Z,13.88
2018-08-25T10:34:59.085Z,13.94
2018-08-25T10:37:25.953Z,14.04
2018-08-25T10:39:52.445Z,14.02
2018-08-25T10:42:18.937Z,13.86
2018-08-25T10:44:45.812Z,13.88
2018-08-25T10:47:13.231Z,13.97
2018-08-25T10:49:39.745Z,14.07
2018-08-25T10:52:06.938Z,14.06
2018-08-25T10:54:33.412Z,14.49
2018-08-25T10:56:59.874Z,15.21
2018-08-25T10:59:26.645Z,15.30
2018-08-25T11:01:53.392Z,15.27
2018-08-25T11:04:20.477Z,14.80
2018-08-25T11:06:47.264Z,14.62
2018-08-25T11:09:13.746Z,14.57
2018-08-25T11:11:40.221Z,14.65
2018-08-25T11:14:07.567Z,14.79
2018-08-25T11:16:35.083Z,14.88
2018-08-25T11:19:01.670Z,15.01
2018-08-25T11:21:28.537Z,15.78
2018-08-25T11:23:55.250Z,15.75
2018-08-25T11:26:21.983Z,15.60
2018-08-25T11:28:48.471Z,15.48
2018-08-25T11:31:15.055Z,15.29
2018-08-25T11:33:42.841Z,15.39
2018-08-25T11:36:11.302Z,15.49
2018-08-25T11:38:38.943Z,16.11
2018-08-25T11:41:05.889Z,16.60
2018-08-25T11:43:32.524Z,17.37
2018-08-25T11:45:59.160Z,17.20
2018-08-25T11:48:26.521Z,16.48
2018-08-25T11:50:52.982Z,15.84
2018-08-25T11:53:19.450Z,15.75
2018-08-25T11:55:46.332Z,15.94
2018-08-25T11:58:12.851Z,15.98
2018-08-25T12:00:39.542Z,16.13
2018-08-25T12:03:06.300Z,16.04
2018-08-25T12:05:32.767Z,15.88
2018-08-25T12:07:59.254Z,15.52
2018-08-25T12:10:26.029Z,15.44
2018-08-25T12:12:52.523Z,15.45
2018-08-25T12:15:19.728Z,15.43
2018-08-25T12:17:47.838Z,15.36
2018-08-25T12:20:14.333Z,15.14
2018-08-25T12:22:42.090Z,15.08
2018-08-25T12:25:09.036Z,15.11
2018-08-25T12:27:36.407Z,15.03
2018-08-25T12:30:03.831Z,15.02
2018-08-25T12:32:30.606Z,14.95
2018-08-25T12:34:58.325Z,14.96
2018-08-25T12:37:26.524Z,15.00
2018-08-25T12:39:54.739Z,15.11
2018-08-25T12:42:26.578Z,15.37
2018-08-25T12:44:54.461Z,15.86
2018-08-25T12:47:21.314Z,16.20
2018-08-25T12:49:49.657Z,16.25
2018-08-25T12:54:49.667Z,16.90
2018-08-25T12:57:16.217Z,16.90
2018-08-25T12:59:43.887Z,17.05
2018-08-25T13:04:45.265Z,15.81
2018-08-25T13:07:11.796Z,15.67
2018-08-25T13:09:42.551Z,15.53
2018-08-25T13:14:42.151Z,15.58
2018-08-25T13:17:09.338Z,15.90
2018-08-25T13:19:35.976Z,16.58
2018-08-25T13:22:03.987Z,17.02
2018-08-25T13:24:32.742Z,17.10
2018-08-25T13:26:59.260Z,17.22
2018-08-25T13:29:25.839Z,17.20
2018-08-25T13:31:52.666Z,17.36
2018-08-25T13:34:19.193Z,16.99
2018-08-25T13:36:46.348Z,16.97
2018-08-25T13:39:13.419Z,17.55
2018-08-25T13:41:40.898Z,17.70
2018-08-25T13:44:07.468Z,17.17
2018-08-25T13:46:34.385Z,16.91
2018-08-25T13:49:01.015Z,16.80
2018-08-25T13:51:27.728Z,16.71
2018-08-25T13:53:58.558Z,16.55
2018-08-25T13:56:25.320Z,16.05
2018-08-25T13:58:51.837Z,15.67
2018-08-25T14:01:18.674Z,15.17
2018-08-25T14:03:45.675Z,14.93
2018-08-25T14:06:12.365Z,14.67
2018-08-25T14:11:11.176Z,14.67
2018-08-25T14:13:37.665Z,14.94
2018-08-25T14:16:04.637Z,16.57
2018-08-25T14:18:31.859Z,18.12
2018-08-25T14:20:58.368Z,18.35
2018-08-25T14:23:25.352Z,18.92
2018-08-25T14:25:51.921Z,18.85
2018-08-25T14:28:18.526Z,19.41
2018-08-25T14:30:46.443Z,20.35
2018-08-25T14:33:14.921Z,20.44
2018-08-25T14:35:42.778Z,19.78
2018-08-25T14:38:11.299Z,19.79
2018-08-25T14:40:37.972Z,18.90
2018-08-25T14:43:04.634Z,19.70
2018-08-25T14:45:31.641Z,19.29
2018-08-25T14:47:58.826Z,18.37
2018-08-25T14:52:57.529Z,17.23
2018-08-25T14:55:24.045Z,16.60
2018-08-25T14:57:50.509Z,16.44
2018-08-25T15:00:18.566Z,16.24
2018-08-25T15:02:45.087Z,15.77
2018-08-25T15:05:11.725Z,15.41
2018-08-25T15:07:39.471Z,15.02
2018-08-25T15:10:06.040Z,14.53
2018-08-25T15:12:32.652Z,13.89
2018-08-25T15:15:00.537Z,13.05
2018-08-25T15:17:27.055Z,12.59
2018-08-25T15:19:56.663Z,12.58
2018-08-25T15:22:26.731Z,12.65
2018-08-25T15:24:53.701Z,12.78
2018-08-25T15:27:20.596Z,13.29
2018-08-25T15:29:47.334Z,14.46
2018-08-25T15:32:14.462Z,15.65
2018-08-25T15:34:42.370Z,16.64
2018-08-25T15:37:09.059Z,17.25
2018-08-25T15:39:36.083Z,16.84
2018-08-25T15:42:03.413Z,16.76
2018-08-25T15:44:29.902Z,17.75
2018-08-25T15:46:56.410Z,17.94
2018-08-25T15:49:24.820Z,18.12
2018-08-25T15:51:51.398Z,18.51
2018-08-25T15:54:20.653Z,18.95
2018-08-25T15:56:48.719Z,19.45
2018-08-25T15:59:15.436Z,19.42
2018-08-25T16:01:41.933Z,19.78
2018-08-25T16:04:08.753Z,19.75
2018-08-25T16:06:35.209Z,19.66
2018-08-25T16:09:01.694Z,19.32
2018-08-25T16:11:28.514Z,19.20
2018-08-25T16:13:56.045Z,17.38
2018-08-25T16:16:23.113Z,16.25
2018-08-25T16:18:51.131Z,15.58
2018-08-25T16:21:18.137Z,15.26
2018-08-25T16:23:44.639Z,15.11
2018-08-25T16:26:11.409Z,15.08
2018-08-25T16:28:37.892Z,15.56
2018-08-25T16:31:04.370Z,17.03
2018-08-25T16:33:31.140Z,17.49
2018-08-25T16:35:58.538Z,16.77
2018-08-25T16:38:25.061Z,16.64
2018-08-25T16:40:51.827Z,15.80
2018-08-25T16:43:22.629Z,15.25
2018-08-25T16:45:50.072Z,15.15
2018-08-25T16:48:18.602Z,14.90
2018-08-25T16:50:45.309Z,14.86
2018-08-25T16:53:12.888Z,14.69
2018-08-25T16:55:39.658Z,14.65
2018-08-25T16:58:06.178Z,14.60
2018-08-25T17:00:32.670Z,14.71
2018-08-25T17:02:59.416Z,14.95
2018-08-25T17:05:27.096Z,15.58
2018-08-25T17:07:54.543Z,15.65
2018-08-25T17:10:21.343Z,16.06
2018-08-25T17:12:48.895Z,17.14
2018-08-25T17:15:15.411Z,17.44
2018-08-25T17:17:42.369Z,17.66
2018-08-25T17:20:09.526Z,17.91
2018-08-25T17:22:36.009Z,18.10
2018-08-25T17:25:05.492Z,17.94
2018-08-25T17:27:32.056Z,17.74
2018-08-25T17:29:58.751Z,16.63
2018-08-25T17:32:25.574Z,15.60
2018-08-25T17:34:52.192Z,15.14
2018-08-25T17:37:20.744Z,14.88
2018-08-25T17:39:50.608Z,14.91
2018-08-25T17:42:18.995Z,14.86
2018-08-25T17:44:46.438Z,14.69
2018-08-25T17:47:14.528Z,14.59
2018-08-25T17:52:12.000Z,14.02
2018-08-25T17:54:41.178Z,13.83
2018-08-25T17:57:10.633Z,13.67
2018-08-25T17:59:40.135Z,13.51
2018-08-25T18:02:08.967Z,13.49
2018-08-25T18:04:35.456Z,13.47
2018-08-25T18:07:06.823Z,13.43
2018-08-25T18:09:35.384Z,13.37
2018-08-25T18:12:05.053Z,13.31
2018-08-25T18:14:32.057Z,13.26
2018-08-25T18:17:00.386Z,13.26
2018-08-25T18:19:27.411Z,13.27
2018-08-25T18:21:56.941Z,13.25
2018-08-25T18:24:24.695Z,13.21
2018-08-25T18:26:51.179Z,13.20
2018-08-25T18:29:18.720Z,13.20
2018-08-25T18:31:46.473Z,13.25
2018-08-25T18:34:12.957Z,13.30
2018-08-25T18:36:40.654Z,13.28
2018-08-25T18:39:07.413Z,13.32
2018-08-25T18:41:33.949Z,13.34
2018-08-25T18:44:00.469Z,13.31
2018-08-25T18:46:27.254Z,13.24
2018-08-25T18:48:53.788Z,13.19
2018-08-25T18:51:21.810Z,13.15
2018-08-25T18:53:48.561Z,13.19
2018-08-25T18:56:15.052Z,13.20
2018-08-25T18:58:41.498Z,13.28
2018-08-25T19:01:08.330Z,13.30
2018-08-25T19:03:35.274Z,13.31
2018-08-25T19:06:01.737Z,13.29
2018-08-25T19:08:29.620Z,13.24
2018-08-25T19:10:56.136Z,13.19
2018-08-25T19:13:23.527Z,13.18
2018-08-25T19:15:52.688Z,13.11
2018-08-25T19:18:19.483Z,13.10
2018-08-25T19:20:46.040Z,13.01
2018-08-25T19:23:13.629Z,12.86
2018-08-25T19:25:43.266Z,12.82
2018-08-25T19:28:09.760Z,12.87
2018-08-25T19:30:38.175Z,12.90
2018-08-25T19:33:06.012Z,12.87
2018-08-25T19:35:32.571Z,12.81
2018-08-25T19:37:59.371Z,12.81
2018-08-25T19:40:26.513Z,12.73
2018-08-25T19:42:53.316Z,12.63
2018-08-25T19:45:24.582Z,12.52
2018-08-25T19:47:51.724Z,12.52
2018-08-25T19:50:19.539Z,12.49
2018-08-25T19:52:46.832Z,12.50
2018-08-25T19:55:13.803Z,12.50
2018-08-25T19:57:40.320Z,12.50
2018-08-25T20:00:13.119Z,12.53
2018-08-25T20:05:12.889Z,12.54
2018-08-25T20:07:40.595Z,12.47
2018-08-25T20:10:07.104Z,12.40
2018-08-25T20:12:34.529Z,12.34
2018-08-25T20:15:02.968Z,12.30
2018-08-25T20:17:30.796Z,12.24
2018-08-25T20:19:59.216Z,12.18
2018-08-25T20:22:26.048Z,12.14
2018-08-25T20:27:23.746Z,11.95
2018-08-25T20:29:50.727Z,11.86
2018-08-25T20:32:18.155Z,11.76
2018-08-25T20:34:45.323Z,11.69
2018-08-25T20:42:22.366Z,11.55
2018-08-25T20:44:48.925Z,11.55
2018-08-25T20:47:15.377Z,11.56
2018-08-25T20:49:42.965Z,11.53
2018-08-25T20:52:09.425Z,11.37
2018-08-25T20:54:36.541Z,11.29
2018-08-25T20:57:03.309Z,11.26
2018-08-25T20:59:29.827Z,11.17
2018-08-25T21:01:56.317Z,11.09
2018-08-25T21:04:23.927Z,11.07
2018-08-25T21:06:51.345Z,11.06
2018-08-25T21:09:17.891Z,11.02
2018-08-25T21:11:44.822Z,11.01
2018-08-25T21:14:12.346Z,10.94
2018-08-25T21:16:38.849Z,10.92
2018-08-25T21:19:07.572Z,10.90
2018-08-25T21:21:34.921Z,10.86
2018-08-25T21:24:01.457Z,10.80
2018-08-25T21:26:28.274Z,10.73
2018-08-25T21:28:55.585Z,10.69
2018-08-25T21:31:22.068Z,10.62
2018-08-25T21:33:50.297Z,10.58
2018-08-25T21:36:18.949Z,10.62
2018-08-25T21:38:45.396Z,10.64
2018-08-25T21:41:13.278Z,10.63
2018-08-25T21:43:40.783Z,10.62
2018-08-25T21:46:08.294Z,10.56
2018-08-25T21:48:35.906Z,10.54
2018-08-25T21:51:06.573Z,10.54
2018-08-25T21:53:34.512Z,10.50
2018-08-25T21:56:01.416Z,10.46
2018-08-25T22:01:01.043Z,10.49
2018-08-25T22:03:27.848Z,10.50
2018-08-25T22:05:54.388Z,10.51
2018-08-25T22:08:20.906Z,10.53
2018-08-25T22:10:47.715Z,10.53
2018-08-25T22:13:14.229Z,10.50
2018-08-25T22:15:41.534Z,10.47
2018-08-25T22:18:08.354Z,10.41
2018-08-25T22:20:35.595Z,10.42
2018-08-25T22:23:02.900Z,10.44
2018-08-25T22:25:29.693Z,10.45
2018-08-25T22:27:56.152Z,10.43
2018-08-25T22:30:22.629Z,10.43
2018-08-25T22:32:50.125Z,10.43
2018-08-25T22:35:16.640Z,10.45
2018-08-25T22:37:44.901Z,10.41
2018-08-25T22:40:12.281Z,10.34
2018-08-25T22:42:38.786Z,10.32
2018-08-25T22:45:05.434Z,10.32
2018-08-25T22:47:32.496Z,10.32
2018-08-25T22:49:59.982Z,10.27
2018-08-25T22:52:26.488Z,10.29
2018-08-25T22:54:53.245Z,10.29
2018-08-25T22:57:19.731Z,10.20
2018-08-25T22:59:46.235Z,10.10
2018-08-25T23:02:13.897Z,10.09
2018-08-25T23:04:40.368Z,10.04
2018-08-25T23:07:06.912Z,10.03
2018-08-25T23:09:34.017Z,10.04
2018-08-25T23:12:01.258Z,10.04
2018-08-25T23:14:27.697Z,10.15
2018-08-25T23:16:54.862Z,10.20
2018-08-25T23:19:21.325Z,10.17
2018-08-25T23:21:48.598Z,10.14
2018-08-25T23:24:15.374Z,10.10
2018-08-25T23:26:41.858Z,10.04
2018-08-25T23:29:08.320Z,10.07
2018-08-25T23:31:37.297Z,10.09
2018-08-25T23:34:03.749Z,10.08
2018-08-25T23:36:30.762Z,10.12
2018-08-25T23:38:57.207Z,10.13
2018-08-25T23:41:24.861Z,10.13
2018-08-25T23:43:51.335Z,10.14
2018-08-25T23:46:17.778Z,9.94
2018-08-25T23:48:44.694Z,9.89
2018-08-25T23:51:11.139Z,9.98
2018-08-25T23:53:37.585Z,10.06
2018-08-25T23:56:04.026Z,10.09
2018-08-25T23:58:31.565Z,10.17
